sensor_id;sensor_type;location;lat;lon;timestamp;P1;durP1;ratioP1;P2;durP2;ratioP2
1569;SDS011;778;50.120;8.698;2024-02-15T00:01:52;11.47;;;10.47;;
1569;SDS011;778;50.120;8.698;2024-02-15T00:04:21;11.40;;;10.47;;
1569;SDS011;778;50.120;8.698;2024-02-15T00:06:49;11.73;;;10.63;;
1569;SDS011;778;50.120;8.698;2024-02-15T00:09:18;11.13;;;10.00;;
1569;SDS011;778;50.120;8.698;2024-02-15T00:11:47;12.20;;;10.33;;
1569;SDS011;778;50.120;8.698;2024-02-15T00:14:17;11.30;;;10.17;;
1569;SDS011;778;50.120;8.698;2024-02-15T00:16:46;10.20;;;9.20;;
1569;SDS011;778;50.120;8.698;2024-02-15T00:19:15;11.33;;;9.93;;
1569;SDS011;778;50.120;8.698;2024-02-15T00:21:44;13.13;;;11.57;;
1569;SDS011;778;50.120;8.698;2024-02-15T00:24:13;11.63;;;10.40;;
1569;SDS011;778;50.120;8.698;2024-02-15T00:26:42;11.43;;;10.40;;
1569;SDS011;778;50.120;8.698;2024-02-15T00:29:11;9.97;;;9.07;;
1569;SDS011;778;50.120;8.698;2024-02-15T00:31:41;10.90;;;10.00;;
1569;SDS011;778;50.120;8.698;2024-02-15T00:34:10;11.27;;;10.10;;
1569;SDS011;778;50.120;8.698;2024-02-15T00:36:41;10.87;;;9.87;;
1569;SDS011;778;50.120;8.698;2024-02-15T00:39:11;10.53;;;9.53;;
1569;SDS011;778;50.120;8.698;2024-02-15T00:41:40;11.63;;;9.83;;
1569;SDS011;778;50.120;8.698;2024-02-15T00:44:09;9.37;;;8.57;;
1569;SDS011;778;50.120;8.698;2024-02-15T00:46:38;10.30;;;9.40;;
1569;SDS011;778;50.120;8.698;2024-02-15T00:49:09;10.00;;;9.00;;
1569;SDS011;778;50.120;8.698;2024-02-15T00:51:39;10.57;;;8.83;;
1569;SDS011;778;50.120;8.698;2024-02-15T00:54:07;8.70;;;7.90;;
1569;SDS011;778;50.120;8.698;2024-02-15T00:56:36;11.80;;;8.97;;
1569;SDS011;778;50.120;8.698;2024-02-15T00:59:05;9.67;;;8.77;;
1569;SDS011;778;50.120;8.698;2024-02-15T01:01:34;13.50;;;8.70;;
1569;SDS011;778;50.120;8.698;2024-02-15T01:04:06;10.40;;;8.43;;
1569;SDS011;778;50.120;8.698;2024-02-15T01:06:35;9.67;;;8.77;;
1569;SDS011;778;50.120;8.698;2024-02-15T01:09:04;8.80;;;8.10;;
1569;SDS011;778;50.120;8.698;2024-02-15T01:11:35;7.80;;;7.20;;
1569;SDS011;778;50.120;8.698;2024-02-15T01:14:04;10.70;;;8.70;;
1569;SDS011;778;50.120;8.698;2024-02-15T01:16:36;8.67;;;7.87;;
1569;SDS011;778;50.120;8.698;2024-02-15T01:19:06;8.43;;;7.63;;
1569;SDS011;778;50.120;8.698;2024-02-15T01:21:35;9.07;;;7.63;;
1569;SDS011;778;50.120;8.698;2024-02-15T01:24:04;8.27;;;7.60;;
1569;SDS011;778;50.120;8.698;2024-02-15T01:26:34;8.90;;;7.50;;
1569;SDS011;778;50.120;8.698;2024-02-15T01:29:02;11.27;;;8.20;;
1569;SDS011;778;50.120;8.698;2024-02-15T01:31:31;7.27;;;6.67;;
1569;SDS011;778;50.120;8.698;2024-02-15T01:34:00;8.03;;;7.20;;
1569;SDS011;778;50.120;8.698;2024-02-15T01:36:31;8.30;;;7.20;;
1569;SDS011;778;50.120;8.698;2024-02-15T01:38:59;9.80;;;8.00;;
1569;SDS011;778;50.120;8.698;2024-02-15T01:41:28;7.10;;;6.40;;
1569;SDS011;778;50.120;8.698;2024-02-15T01:43:58;7.80;;;7.10;;
1569;SDS011;778;50.120;8.698;2024-02-15T01:46:27;9.97;;;6.77;;
1569;SDS011;778;50.120;8.698;2024-02-15T01:48:57;7.40;;;6.50;;
1569;SDS011;778;50.120;8.698;2024-02-15T01:51:26;7.10;;;6.50;;
1569;SDS011;778;50.120;8.698;2024-02-15T01:53:57;7.70;;;6.97;;
1569;SDS011;778;50.120;8.698;2024-02-15T01:56:27;7.80;;;6.90;;
1569;SDS011;778;50.120;8.698;2024-02-15T01:58:57;7.70;;;6.73;;
1569;SDS011;778;50.120;8.698;2024-02-15T04:06:11;8.30;;;6.40;;
1569;SDS011;778;50.120;8.698;2024-02-15T04:08:41;7.67;;;6.87;;
1569;SDS011;778;50.120;8.698;2024-02-15T04:11:10;9.77;;;6.90;;
1569;SDS011;778;50.120;8.698;2024-02-15T04:13:39;7.17;;;6.47;;
1569;SDS011;778;50.120;8.698;2024-02-15T04:16:09;9.23;;;7.30;;
1569;SDS011;778;50.120;8.698;2024-02-15T04:18:37;8.43;;;6.67;;
1569;SDS011;778;50.120;8.698;2024-02-15T04:21:08;9.97;;;7.03;;
1569;SDS011;778;50.120;8.698;2024-02-15T04:23:38;8.60;;;7.67;;
1569;SDS011;778;50.120;8.698;2024-02-15T04:26:08;11.30;;;6.63;;
1569;SDS011;778;50.120;8.698;2024-02-15T04:28:39;7.00;;;6.40;;
1569;SDS011;778;50.120;8.698;2024-02-15T04:31:08;7.63;;;6.43;;
1569;SDS011;778;50.120;8.698;2024-02-15T04:33:39;11.20;;;6.83;;
1569;SDS011;778;50.120;8.698;2024-02-15T04:36:08;7.70;;;6.10;;
1569;SDS011;778;50.120;8.698;2024-02-15T04:38:38;8.40;;;6.10;;
1569;SDS011;778;50.120;8.698;2024-02-15T04:41:07;9.80;;;7.07;;
1569;SDS011;778;50.120;8.698;2024-02-15T04:43:36;11.87;;;7.20;;
1569;SDS011;778;50.120;8.698;2024-02-15T04:46:07;9.37;;;5.83;;
1569;SDS011;778;50.120;8.698;2024-02-15T04:48:35;10.00;;;6.80;;
1569;SDS011;778;50.120;8.698;2024-02-15T04:51:04;6.80;;;6.20;;
1569;SDS011;778;50.120;8.698;2024-02-15T04:53:35;9.03;;;6.60;;
1569;SDS011;778;50.120;8.698;2024-02-15T04:56:05;6.83;;;5.90;;
1569;SDS011;778;50.120;8.698;2024-02-15T04:58:40;8.57;;;6.47;;
1569;SDS011;778;50.120;8.698;2024-02-15T05:01:12;7.90;;;6.07;;
1569;SDS011;778;50.120;8.698;2024-02-15T05:03:41;15.20;;;6.70;;
1569;SDS011;778;50.120;8.698;2024-02-15T05:06:10;10.73;;;6.40;;
1569;SDS011;778;50.120;8.698;2024-02-15T05:08:41;8.00;;;6.17;;
1569;SDS011;778;50.120;8.698;2024-02-15T05:11:10;6.57;;;5.77;;
1569;SDS011;778;50.120;8.698;2024-02-15T05:13:44;8.37;;;5.60;;
1569;SDS011;778;50.120;8.698;2024-02-15T05:16:13;6.73;;;5.17;;
1569;SDS011;778;50.120;8.698;2024-02-15T05:18:42;5.87;;;5.37;;
1569;SDS011;778;50.120;8.698;2024-02-15T05:21:12;6.53;;;5.90;;
1569;SDS011;778;50.120;8.698;2024-02-15T05:23:43;5.83;;;5.13;;
1569;SDS011;778;50.120;8.698;2024-02-15T05:26:12;6.90;;;5.30;;
1569;SDS011;778;50.120;8.698;2024-02-15T05:28:42;5.77;;;5.20;;
1569;SDS011;778;50.120;8.698;2024-02-15T05:31:11;6.93;;;5.10;;
1569;SDS011;778;50.120;8.698;2024-02-15T05:33:43;7.40;;;5.90;;
1569;SDS011;778;50.120;8.698;2024-02-15T05:36:14;8.50;;;5.53;;
1569;SDS011;778;50.120;8.698;2024-02-15T05:38:49;6.53;;;4.80;;
1569;SDS011;778;50.120;8.698;2024-02-15T05:41:19;8.23;;;5.57;;
1569;SDS011;778;50.120;8.698;2024-02-15T05:43:48;8.67;;;6.33;;
1569;SDS011;778;50.120;8.698;2024-02-15T05:46:19;6.83;;;5.73;;
1569;SDS011;778;50.120;8.698;2024-02-15T05:48:48;6.10;;;5.50;;
1569;SDS011;778;50.120;8.698;2024-02-15T05:51:18;7.20;;;5.00;;
1569;SDS011;778;50.120;8.698;2024-02-15T05:53:48;9.10;;;5.30;;
1569;SDS011;778;50.120;8.698;2024-02-15T05:56:19;6.67;;;4.60;;
1569;SDS011;778;50.120;8.698;2024-02-15T05:58:47;5.93;;;5.30;;
1569;SDS011;778;50.120;8.698;2024-02-15T06:01:16;6.40;;;5.80;;
1569;SDS011;778;50.120;8.698;2024-02-15T06:03:45;10.57;;;6.43;;
1569;SDS011;778;50.120;8.698;2024-02-15T06:06:15;7.83;;;5.77;;
1569;SDS011;778;50.120;8.698;2024-02-15T06:08:45;9.70;;;5.63;;
1569;SDS011;778;50.120;8.698;2024-02-15T06:11:18;11.17;;;5.30;;
1569;SDS011;778;50.120;8.698;2024-02-15T06:13:47;7.73;;;4.70;;
1569;SDS011;778;50.120;8.698;2024-02-15T06:16:16;5.60;;;4.93;;
1569;SDS011;778;50.120;8.698;2024-02-15T06:18:45;5.33;;;4.83;;
1569;SDS011;778;50.120;8.698;2024-02-15T06:21:15;5.77;;;4.80;;
1569;SDS011;778;50.120;8.698;2024-02-15T06:23:44;7.57;;;5.47;;
1569;SDS011;778;50.120;8.698;2024-02-15T06:26:16;6.20;;;5.20;;
1569;SDS011;778;50.120;8.698;2024-02-15T06:28:45;7.80;;;5.20;;
1569;SDS011;778;50.120;8.698;2024-02-15T06:31:28;9.50;;;6.10;;
1569;SDS011;778;50.120;8.698;2024-02-15T06:34:14;6.90;;;5.47;;
1569;SDS011;778;50.120;8.698;2024-02-15T06:37:00;9.30;;;5.80;;
1569;SDS011;778;50.120;8.698;2024-02-15T06:39:46;11.70;;;5.70;;
1569;SDS011;778;50.120;8.698;2024-02-15T06:42:17;8.50;;;5.67;;
1569;SDS011;778;50.120;8.698;2024-02-15T06:44:47;5.90;;;5.40;;
1569;SDS011;778;50.120;8.698;2024-02-15T06:47:16;9.20;;;5.90;;
1569;SDS011;778;50.120;8.698;2024-02-15T06:49:45;10.17;;;6.30;;
1569;SDS011;778;50.120;8.698;2024-02-15T06:52:16;6.20;;;5.60;;
1569;SDS011;778;50.120;8.698;2024-02-15T06:54:45;8.17;;;6.17;;
1569;SDS011;778;50.120;8.698;2024-02-15T06:57:15;11.53;;;7.10;;
1569;SDS011;778;50.120;8.698;2024-02-15T06:59:46;10.37;;;5.80;;
1569;SDS011;778;50.120;8.698;2024-02-15T07:02:15;7.67;;;6.20;;
1569;SDS011;778;50.120;8.698;2024-02-15T07:04:44;12.60;;;7.10;;
1569;SDS011;778;50.120;8.698;2024-02-15T07:07:13;5.63;;;5.13;;
1569;SDS011;778;50.120;8.698;2024-02-15T07:09:43;7.53;;;5.87;;
1569;SDS011;778;50.120;8.698;2024-02-15T07:12:12;9.07;;;6.90;;
1569;SDS011;778;50.120;8.698;2024-02-15T07:14:43;8.73;;;6.60;;
1569;SDS011;778;50.120;8.698;2024-02-15T07:17:13;8.60;;;6.97;;
1569;SDS011;778;50.120;8.698;2024-02-15T07:19:42;11.27;;;7.20;;
1569;SDS011;778;50.120;8.698;2024-02-15T07:22:11;8.17;;;7.13;;
1569;SDS011;778;50.120;8.698;2024-02-15T07:24:40;10.00;;;6.90;;
1569;SDS011;778;50.120;8.698;2024-02-15T07:27:09;12.40;;;9.40;;
1569;SDS011;778;50.120;8.698;2024-02-15T07:29:38;8.50;;;6.30;;
1569;SDS011;778;50.120;8.698;2024-02-15T07:32:08;7.97;;;7.17;;
1569;SDS011;778;50.120;8.698;2024-02-15T07:34:38;9.70;;;6.07;;
1569;SDS011;778;50.120;8.698;2024-02-15T07:37:08;9.10;;;6.20;;
1569;SDS011;778;50.120;8.698;2024-02-15T07:39:38;9.13;;;6.20;;
1569;SDS011;778;50.120;8.698;2024-02-15T07:42:07;8.97;;;5.83;;
1569;SDS011;778;50.120;8.698;2024-02-15T07:44:36;8.70;;;6.40;;
1569;SDS011;778;50.120;8.698;2024-02-15T07:47:05;6.57;;;5.47;;
1569;SDS011;778;50.120;8.698;2024-02-15T07:49:36;8.77;;;5.43;;
1569;SDS011;778;50.120;8.698;2024-02-15T07:52:05;7.47;;;5.20;;
1569;SDS011;778;50.120;8.698;2024-02-15T07:54:35;6.23;;;5.60;;
1569;SDS011;778;50.120;8.698;2024-02-15T07:57:05;4.90;;;4.50;;
1569;SDS011;778;50.120;8.698;2024-02-15T07:59:35;8.73;;;5.43;;
1569;SDS011;778;50.120;8.698;2024-02-15T08:02:06;6.43;;;5.70;;
1569;SDS011;778;50.120;8.698;2024-02-15T08:04:34;15.63;;;5.10;;
1569;SDS011;778;50.120;8.698;2024-02-15T08:07:07;6.43;;;5.30;;
1569;SDS011;778;50.120;8.698;2024-02-15T08:09:37;5.63;;;4.53;;
1569;SDS011;778;50.120;8.698;2024-02-15T08:12:09;10.40;;;5.83;;
1569;SDS011;778;50.120;8.698;2024-02-15T08:14:37;7.50;;;6.00;;
1569;SDS011;778;50.120;8.698;2024-02-15T08:17:07;9.47;;;4.60;;
1569;SDS011;778;50.120;8.698;2024-02-15T08:19:37;8.43;;;6.07;;
1569;SDS011;778;50.120;8.698;2024-02-15T08:22:12;7.60;;;5.57;;
1569;SDS011;778;50.120;8.698;2024-02-15T08:24:41;8.73;;;5.37;;
1569;SDS011;778;50.120;8.698;2024-02-15T08:27:10;9.43;;;6.10;;
1569;SDS011;778;50.120;8.698;2024-02-15T08:29:39;6.63;;;5.43;;
1569;SDS011;778;50.120;8.698;2024-02-15T08:32:08;9.13;;;5.80;;
1569;SDS011;778;50.120;8.698;2024-02-15T08:34:39;9.17;;;4.80;;
1569;SDS011;778;50.120;8.698;2024-02-15T08:37:08;5.40;;;4.40;;
1569;SDS011;778;50.120;8.698;2024-02-15T08:39:37;13.03;;;11.70;;
1569;SDS011;778;50.120;8.698;2024-02-15T08:42:06;8.30;;;6.00;;
1569;SDS011;778;50.120;8.698;2024-02-15T08:44:35;11.93;;;6.60;;
1569;SDS011;778;50.120;8.698;2024-02-15T08:47:04;11.93;;;5.40;;
1569;SDS011;778;50.120;8.698;2024-02-15T08:49:32;5.93;;;5.00;;
1569;SDS011;778;50.120;8.698;2024-02-15T08:52:03;6.80;;;4.87;;
1569;SDS011;778;50.120;8.698;2024-02-15T08:54:34;12.33;;;5.23;;
1569;SDS011;778;50.120;8.698;2024-02-15T08:57:05;6.40;;;4.80;;
1569;SDS011;778;50.120;8.698;2024-02-15T08:59:34;4.93;;;4.33;;
1569;SDS011;778;50.120;8.698;2024-02-15T09:02:03;7.27;;;5.80;;
1569;SDS011;778;50.120;8.698;2024-02-15T09:04:32;6.53;;;5.63;;
1569;SDS011;778;50.120;8.698;2024-02-15T09:07:03;7.10;;;4.63;;
1569;SDS011;778;50.120;8.698;2024-02-15T09:09:34;4.93;;;4.10;;
1569;SDS011;778;50.120;8.698;2024-02-15T09:12:03;5.80;;;4.07;;
1569;SDS011;778;50.120;8.698;2024-02-15T09:14:32;8.30;;;4.47;;
1569;SDS011;778;50.120;8.698;2024-02-15T09:17:03;5.63;;;4.90;;
1569;SDS011;778;50.120;8.698;2024-02-15T09:19:34;5.70;;;4.87;;
1569;SDS011;778;50.120;8.698;2024-02-15T09:22:04;7.37;;;4.23;;
1569;SDS011;778;50.120;8.698;2024-02-15T09:24:33;3.93;;;3.57;;
1569;SDS011;778;50.120;8.698;2024-02-15T09:27:02;6.87;;;4.93;;
1569;SDS011;778;50.120;8.698;2024-02-15T09:29:31;5.03;;;4.27;;
1569;SDS011;778;50.120;8.698;2024-02-15T09:32:00;6.87;;;4.10;;
1569;SDS011;778;50.120;8.698;2024-02-15T09:34:29;9.83;;;4.30;;
1569;SDS011;778;50.120;8.698;2024-02-15T09:36:59;8.20;;;3.80;;
1569;SDS011;778;50.120;8.698;2024-02-15T09:39:29;8.03;;;4.50;;
1569;SDS011;778;50.120;8.698;2024-02-15T09:41:58;6.50;;;3.90;;
1569;SDS011;778;50.120;8.698;2024-02-15T09:44:27;5.97;;;3.20;;
1569;SDS011;778;50.120;8.698;2024-02-15T09:47:03;7.70;;;4.17;;
1569;SDS011;778;50.120;8.698;2024-02-15T09:49:35;6.57;;;3.80;;
1569;SDS011;778;50.120;8.698;2024-02-15T09:52:06;5.17;;;4.00;;
1569;SDS011;778;50.120;8.698;2024-02-15T09:54:40;7.60;;;4.30;;
1569;SDS011;778;50.120;8.698;2024-02-15T09:57:10;4.80;;;4.07;;
1569;SDS011;778;50.120;8.698;2024-02-15T09:59:39;7.37;;;4.30;;
1569;SDS011;778;50.120;8.698;2024-02-15T10:02:11;6.40;;;3.93;;
1569;SDS011;778;50.120;8.698;2024-02-15T10:04:40;6.37;;;3.63;;
1569;SDS011;778;50.120;8.698;2024-02-15T10:07:12;10.87;;;3.17;;
1569;SDS011;778;50.120;8.698;2024-02-15T10:09:42;4.30;;;3.57;;
1569;SDS011;778;50.120;8.698;2024-02-15T10:12:11;3.67;;;3.17;;
1569;SDS011;778;50.120;8.698;2024-02-15T10:14:44;5.17;;;3.97;;
1569;SDS011;778;50.120;8.698;2024-02-15T10:17:18;8.60;;;3.13;;
1569;SDS011;778;50.120;8.698;2024-02-15T10:22:31;6.63;;;3.93;;
1569;SDS011;778;50.120;8.698;2024-02-15T10:25:13;3.63;;;3.33;;
1569;SDS011;778;50.120;8.698;2024-02-15T10:27:44;4.20;;;3.43;;
1569;SDS011;778;50.120;8.698;2024-02-15T10:30:14;5.53;;;3.83;;
1569;SDS011;778;50.120;8.698;2024-02-15T10:32:44;6.50;;;2.87;;
1569;SDS011;778;50.120;8.698;2024-02-15T10:35:18;6.93;;;4.00;;
1569;SDS011;778;50.120;8.698;2024-02-15T10:37:48;4.90;;;3.83;;
1569;SDS011;778;50.120;8.698;2024-02-15T10:40:19;10.17;;;4.50;;
1569;SDS011;778;50.120;8.698;2024-02-15T10:42:48;6.53;;;3.87;;
1569;SDS011;778;50.120;8.698;2024-02-15T10:45:23;4.63;;;4.27;;
1569;SDS011;778;50.120;8.698;2024-02-15T10:47:52;12.20;;;4.60;;
1569;SDS011;778;50.120;8.698;2024-02-15T10:50:21;4.10;;;3.50;;
1569;SDS011;778;50.120;8.698;2024-02-15T10:52:51;11.23;;;3.83;;
1569;SDS011;778;50.120;8.698;2024-02-15T10:55:30;6.83;;;4.30;;
1569;SDS011;778;50.120;8.698;2024-02-15T10:58:07;5.80;;;4.17;;
1569;SDS011;778;50.120;8.698;2024-02-15T11:00:36;7.37;;;3.93;;
1569;SDS011;778;50.120;8.698;2024-02-15T11:03:07;7.30;;;4.43;;
1569;SDS011;778;50.120;8.698;2024-02-15T11:05:36;7.07;;;4.03;;
1569;SDS011;778;50.120;8.698;2024-02-15T11:08:06;7.83;;;5.00;;
1569;SDS011;778;50.120;8.698;2024-02-15T11:10:37;8.70;;;4.50;;
1569;SDS011;778;50.120;8.698;2024-02-15T11:13:10;10.90;;;4.20;;
1569;SDS011;778;50.120;8.698;2024-02-15T11:15:41;7.07;;;3.60;;
1569;SDS011;778;50.120;8.698;2024-02-15T11:21:12;5.47;;;4.30;;
1569;SDS011;778;50.120;8.698;2024-02-15T11:23:41;6.73;;;4.07;;
1569;SDS011;778;50.120;8.698;2024-02-15T11:32:34;7.30;;;3.17;;
1569;SDS011;778;50.120;8.698;2024-02-15T11:35:10;7.87;;;3.40;;
1569;SDS011;778;50.120;8.698;2024-02-15T11:37:57;7.40;;;3.80;;
1569;SDS011;778;50.120;8.698;2024-02-15T11:43:46;5.77;;;4.63;;
1569;SDS011;778;50.120;8.698;2024-02-15T11:46:22;6.67;;;3.50;;
1569;SDS011;778;50.120;8.698;2024-02-15T11:48:53;3.10;;;2.73;;
1569;SDS011;778;50.120;8.698;2024-02-15T11:51:29;4.10;;;3.10;;
1569;SDS011;778;50.120;8.698;2024-02-15T11:54:04;4.80;;;3.03;;
1569;SDS011;778;50.120;8.698;2024-02-15T11:59:41;4.77;;;3.47;;
1569;SDS011;778;50.120;8.698;2024-02-15T12:02:20;7.60;;;3.27;;
1569;SDS011;778;50.120;8.698;2024-02-15T12:05:07;10.03;;;3.23;;
1569;SDS011;778;50.120;8.698;2024-02-15T12:07:54;4.43;;;2.50;;
1569;SDS011;778;50.120;8.698;2024-02-15T12:10:41;5.17;;;2.27;;
1569;SDS011;778;50.120;8.698;2024-02-15T12:13:27;5.37;;;2.47;;
1569;SDS011;778;50.120;8.698;2024-02-15T12:16:15;3.50;;;1.93;;
1569;SDS011;778;50.120;8.698;2024-02-15T12:19:02;3.60;;;2.20;;
1569;SDS011;778;50.120;8.698;2024-02-15T12:21:31;2.50;;;1.90;;
1569;SDS011;778;50.120;8.698;2024-02-15T12:24:00;5.60;;;2.03;;
1569;SDS011;778;50.120;8.698;2024-02-15T12:26:32;2.87;;;2.23;;
1569;SDS011;778;50.120;8.698;2024-02-15T12:29:01;2.50;;;2.30;;
1569;SDS011;778;50.120;8.698;2024-02-15T12:31:34;3.73;;;2.30;;
1569;SDS011;778;50.120;8.698;2024-02-15T12:34:05;2.47;;;1.53;;
1569;SDS011;778;50.120;8.698;2024-02-15T12:36:35;5.07;;;2.40;;
1569;SDS011;778;50.120;8.698;2024-02-15T12:39:05;6.30;;;2.47;;
1569;SDS011;778;50.120;8.698;2024-02-15T12:41:38;5.00;;;2.07;;
1569;SDS011;778;50.120;8.698;2024-02-15T12:44:08;6.67;;;3.23;;
1569;SDS011;778;50.120;8.698;2024-02-15T12:46:39;6.10;;;2.67;;
1569;SDS011;778;50.120;8.698;2024-02-15T12:49:09;3.13;;;2.20;;
1569;SDS011;778;50.120;8.698;2024-02-15T12:51:41;5.17;;;2.67;;
1569;SDS011;778;50.120;8.698;2024-02-15T12:54:19;3.53;;;2.30;;
1569;SDS011;778;50.120;8.698;2024-02-15T12:56:48;2.93;;;2.03;;
1569;SDS011;778;50.120;8.698;2024-02-15T12:59:18;3.40;;;1.80;;
1569;SDS011;778;50.120;8.698;2024-02-15T13:01:49;6.70;;;2.00;;
1569;SDS011;778;50.120;8.698;2024-02-15T13:04:23;3.80;;;2.27;;
1569;SDS011;778;50.120;8.698;2024-02-15T13:06:52;5.37;;;2.27;;
1569;SDS011;778;50.120;8.698;2024-02-15T13:09:21;3.03;;;2.00;;
1569;SDS011;778;50.120;8.698;2024-02-15T13:11:51;4.70;;;2.13;;
1569;SDS011;778;50.120;8.698;2024-02-15T13:14:20;4.03;;;2.30;;
1569;SDS011;778;50.120;8.698;2024-02-15T13:16:50;4.80;;;2.23;;
1569;SDS011;778;50.120;8.698;2024-02-15T13:19:19;3.63;;;2.83;;
1569;SDS011;778;50.120;8.698;2024-02-15T13:21:49;2.63;;;2.43;;
1569;SDS011;778;50.120;8.698;2024-02-15T13:24:19;6.73;;;3.43;;
1569;SDS011;778;50.120;8.698;2024-02-15T13:26:52;3.83;;;2.70;;
1569;SDS011;778;50.120;8.698;2024-02-15T13:29:25;5.50;;;2.70;;
1569;SDS011;778;50.120;8.698;2024-02-15T13:31:55;5.00;;;2.30;;
1569;SDS011;778;50.120;8.698;2024-02-15T13:34:25;2.80;;;2.10;;
1569;SDS011;778;50.120;8.698;2024-02-15T13:36:54;7.67;;;2.20;;
1569;SDS011;778;50.120;8.698;2024-02-15T13:39:22;2.83;;;2.53;;
1569;SDS011;778;50.120;8.698;2024-02-15T13:41:51;6.50;;;2.80;;
1569;SDS011;778;50.120;8.698;2024-02-15T13:44:20;7.10;;;2.67;;
1569;SDS011;778;50.120;8.698;2024-02-15T13:46:50;5.00;;;2.80;;
1569;SDS011;778;50.120;8.698;2024-02-15T13:49:23;5.93;;;1.97;;
1569;SDS011;778;50.120;8.698;2024-02-15T13:51:58;2.50;;;1.90;;
1569;SDS011;778;50.120;8.698;2024-02-15T13:54:29;4.20;;;2.03;;
1569;SDS011;778;50.120;8.698;2024-02-15T13:56:58;6.80;;;2.07;;
1569;SDS011;778;50.120;8.698;2024-02-15T13:59:27;3.33;;;2.10;;
1569;SDS011;778;50.120;8.698;2024-02-15T14:01:57;5.70;;;2.20;;
1569;SDS011;778;50.120;8.698;2024-02-15T14:04:27;8.23;;;2.90;;
1569;SDS011;778;50.120;8.698;2024-02-15T14:06:55;6.33;;;2.87;;
1569;SDS011;778;50.120;8.698;2024-02-15T14:09:24;5.43;;;3.30;;
1569;SDS011;778;50.120;8.698;2024-02-15T14:11:54;4.80;;;2.63;;
1569;SDS011;778;50.120;8.698;2024-02-15T14:14:24;5.60;;;2.73;;
1569;SDS011;778;50.120;8.698;2024-02-15T14:16:53;5.33;;;2.30;;
1569;SDS011;778;50.120;8.698;2024-02-15T14:19:22;6.77;;;3.77;;
1569;SDS011;778;50.120;8.698;2024-02-15T14:21:54;4.87;;;3.20;;
1569;SDS011;778;50.120;8.698;2024-02-15T14:24:22;5.87;;;3.57;;
1569;SDS011;778;50.120;8.698;2024-02-15T14:26:51;9.90;;;4.10;;
1569;SDS011;778;50.120;8.698;2024-02-15T14:29:20;5.90;;;3.70;;
1569;SDS011;778;50.120;8.698;2024-02-15T14:31:52;6.23;;;2.87;;
1569;SDS011;778;50.120;8.698;2024-02-15T14:34:53;8.70;;;3.40;;
1569;SDS011;778;50.120;8.698;2024-02-15T14:37:24;5.63;;;3.03;;
1569;SDS011;778;50.120;8.698;2024-02-15T14:39:52;6.07;;;3.47;;
1569;SDS011;778;50.120;8.698;2024-02-15T14:42:22;4.23;;;2.63;;
1569;SDS011;778;50.120;8.698;2024-02-15T14:44:51;7.00;;;2.90;;
1569;SDS011;778;50.120;8.698;2024-02-15T14:47:20;10.10;;;2.90;;
1569;SDS011;778;50.120;8.698;2024-02-15T14:49:49;7.83;;;3.50;;
1569;SDS011;778;50.120;8.698;2024-02-15T14:52:18;4.93;;;3.60;;
1569;SDS011;778;50.120;8.698;2024-02-15T14:54:48;9.33;;;4.93;;
1569;SDS011;778;50.120;8.698;2024-02-15T14:57:18;11.50;;;3.73;;
1569;SDS011;778;50.120;8.698;2024-02-15T14:59:49;5.70;;;2.63;;
1569;SDS011;778;50.120;8.698;2024-02-15T15:02:17;6.03;;;2.80;;
1569;SDS011;778;50.120;8.698;2024-02-15T15:04:46;3.83;;;2.53;;
1569;SDS011;778;50.120;8.698;2024-02-15T15:07:35;6.00;;;2.93;;
1569;SDS011;778;50.120;8.698;2024-02-15T15:10:23;3.57;;;2.60;;
1569;SDS011;778;50.120;8.698;2024-02-15T15:13:09;6.97;;;3.13;;
1569;SDS011;778;50.120;8.698;2024-02-15T15:15:39;6.37;;;3.30;;
1569;SDS011;778;50.120;8.698;2024-02-15T15:18:08;7.73;;;2.77;;
1569;SDS011;778;50.120;8.698;2024-02-15T15:20:37;4.50;;;2.53;;
1569;SDS011;778;50.120;8.698;2024-02-15T15:23:06;8.90;;;3.30;;
1569;SDS011;778;50.120;8.698;2024-02-15T15:25:38;4.40;;;2.97;;
1569;SDS011;778;50.120;8.698;2024-02-15T15:28:07;6.30;;;3.83;;
1569;SDS011;778;50.120;8.698;2024-02-15T15:30:36;6.00;;;3.83;;
1569;SDS011;778;50.120;8.698;2024-02-15T15:33:05;5.60;;;2.60;;
1569;SDS011;778;50.120;8.698;2024-02-15T15:35:35;4.50;;;3.37;;
1569;SDS011;778;50.120;8.698;2024-02-15T15:38:05;3.97;;;2.67;;
1569;SDS011;778;50.120;8.698;2024-02-15T15:40:33;6.00;;;2.97;;
1569;SDS011;778;50.120;8.698;2024-02-15T15:43:03;4.00;;;3.30;;
1569;SDS011;778;50.120;8.698;2024-02-15T15:45:32;4.03;;;2.40;;
1569;SDS011;778;50.120;8.698;2024-02-15T15:48:01;8.60;;;3.13;;
1569;SDS011;778;50.120;8.698;2024-02-15T15:50:31;6.50;;;3.30;;
1569;SDS011;778;50.120;8.698;2024-02-15T15:53:02;4.27;;;3.17;;
1569;SDS011;778;50.120;8.698;2024-02-15T15:55:31;4.83;;;3.23;;
1569;SDS011;778;50.120;8.698;2024-02-15T15:58:01;10.43;;;3.43;;
1569;SDS011;778;50.120;8.698;2024-02-15T16:00:32;9.63;;;4.80;;
1569;SDS011;778;50.120;8.698;2024-02-15T16:03:01;8.67;;;3.60;;
1569;SDS011;778;50.120;8.698;2024-02-15T16:05:31;8.73;;;4.53;;
1569;SDS011;778;50.120;8.698;2024-02-15T16:08:00;9.90;;;4.80;;
1569;SDS011;778;50.120;8.698;2024-02-15T16:10:29;7.53;;;4.07;;
1569;SDS011;778;50.120;8.698;2024-02-15T16:12:58;7.33;;;4.10;;
1569;SDS011;778;50.120;8.698;2024-02-15T16:15:29;7.40;;;4.43;;
1569;SDS011;778;50.120;8.698;2024-02-15T16:17:58;10.30;;;4.47;;
1569;SDS011;778;50.120;8.698;2024-02-15T16:20:29;9.23;;;4.43;;
1569;SDS011;778;50.120;8.698;2024-02-15T16:22:58;14.63;;;4.97;;
1569;SDS011;778;50.120;8.698;2024-02-15T16:25:28;8.13;;;4.40;;
1569;SDS011;778;50.120;8.698;2024-02-15T16:27:57;5.67;;;4.27;;
1569;SDS011;778;50.120;8.698;2024-02-15T16:30:28;8.93;;;4.57;;
1569;SDS011;778;50.120;8.698;2024-02-15T16:32:59;9.30;;;5.40;;
1569;SDS011;778;50.120;8.698;2024-02-15T16:35:28;10.17;;;5.23;;
1569;SDS011;778;50.120;8.698;2024-02-15T16:37:57;10.80;;;7.13;;
1569;SDS011;778;50.120;8.698;2024-02-15T16:40:26;10.50;;;7.00;;
1569;SDS011;778;50.120;8.698;2024-02-15T16:42:55;6.77;;;5.13;;
1569;SDS011;778;50.120;8.698;2024-02-15T16:45:24;13.23;;;8.20;;
1569;SDS011;778;50.120;8.698;2024-02-15T16:47:54;6.00;;;4.97;;
1569;SDS011;778;50.120;8.698;2024-02-15T16:50:26;8.53;;;5.13;;
1569;SDS011;778;50.120;8.698;2024-02-15T16:52:56;7.00;;;4.23;;
1569;SDS011;778;50.120;8.698;2024-02-15T16:55:24;7.87;;;4.57;;
1569;SDS011;778;50.120;8.698;2024-02-15T16:57:57;11.67;;;5.60;;
1569;SDS011;778;50.120;8.698;2024-02-15T17:00:30;6.90;;;5.07;;
1569;SDS011;778;50.120;8.698;2024-02-15T17:03:00;11.83;;;4.97;;
1569;SDS011;778;50.120;8.698;2024-02-15T17:05:31;5.30;;;3.17;;
1569;SDS011;778;50.120;8.698;2024-02-15T17:08:02;10.63;;;3.80;;
1569;SDS011;778;50.120;8.698;2024-02-15T17:10:34;4.70;;;3.93;;
1569;SDS011;778;50.120;8.698;2024-02-15T17:13:04;4.87;;;3.57;;
1569;SDS011;778;50.120;8.698;2024-02-15T17:15:34;9.57;;;5.90;;
1569;SDS011;778;50.120;8.698;2024-02-15T17:18:04;7.30;;;4.50;;
1569;SDS011;778;50.120;8.698;2024-02-15T17:20:33;12.50;;;4.50;;
1569;SDS011;778;50.120;8.698;2024-02-15T17:23:02;10.70;;;4.30;;
1569;SDS011;778;50.120;8.698;2024-02-15T17:25:33;6.30;;;4.33;;
1569;SDS011;778;50.120;8.698;2024-02-15T17:28:04;9.77;;;3.50;;
1569;SDS011;778;50.120;8.698;2024-02-15T17:30:33;10.50;;;8.87;;
1569;SDS011;778;50.120;8.698;2024-02-15T17:33:03;7.77;;;5.10;;
1569;SDS011;778;50.120;8.698;2024-02-15T17:35:35;10.33;;;4.43;;
1569;SDS011;778;50.120;8.698;2024-02-15T17:38:04;6.13;;;4.17;;
1569;SDS011;778;50.120;8.698;2024-02-15T17:40:34;10.23;;;5.60;;
1569;SDS011;778;50.120;8.698;2024-02-15T17:43:04;11.27;;;5.33;;
1569;SDS011;778;50.120;8.698;2024-02-15T17:45:34;11.40;;;5.20;;
1569;SDS011;778;50.120;8.698;2024-02-15T17:48:03;8.20;;;4.70;;
1569;SDS011;778;50.120;8.698;2024-02-15T17:50:33;6.33;;;4.40;;
1569;SDS011;778;50.120;8.698;2024-02-15T17:53:03;7.93;;;4.43;;
1569;SDS011;778;50.120;8.698;2024-02-15T17:55:32;5.30;;;3.93;;
1569;SDS011;778;50.120;8.698;2024-02-15T17:58:01;12.90;;;4.07;;
1569;SDS011;778;50.120;8.698;2024-02-15T18:00:31;13.70;;;5.63;;
1569;SDS011;778;50.120;8.698;2024-02-15T18:03:03;7.80;;;4.10;;
1569;SDS011;778;50.120;8.698;2024-02-15T18:05:34;7.27;;;3.97;;
1569;SDS011;778;50.120;8.698;2024-02-15T18:08:03;9.73;;;4.00;;
1569;SDS011;778;50.120;8.698;2024-02-15T18:10:33;7.13;;;4.10;;
1569;SDS011;778;50.120;8.698;2024-02-15T18:13:01;9.93;;;4.60;;